createdAt,value
2018-04-10T00:03:00.000Z,14.8
2018-04-10T00:08:00.000Z,14.7
2018-04-10T00:13:00.000Z,14.7
2018-04-10T00:18:00.000Z,14.7
2018-04-10T00:23:00.000Z,14.7
2018-04-10T00:28:00.000Z,14.7
2018-04-10T00:33:00.000Z,14.6
2018-04-10T00:38:00.000Z,14.5
2018-04-10T00:43:00.000Z,14.4
2018-04-10T00:48:00.000Z,14.3
2018-04-10T00:53:00.000Z,14.2
2018-04-10T00:58:00.000Z,14.1
2018-04-10T01:03:00.000Z,14.0
2018-04-10T01:08:00.000Z,14.1
2018-04-10T01:13:00.000Z,14.0
2018-04-10T01:18:00.000Z,14.0
2018-04-10T01:23:00.000Z,14.0
2018-04-10T01:28:00.000Z,14.0
2018-04-10T01:33:00.000Z,13.9
2018-04-10T01:38:00.000Z,13.8
2018-04-10T01:43:00.000Z,13.8
2018-04-10T01:49:00.000Z,13.8
2018-04-10T01:54:00.000Z,13.7
2018-04-10T01:59:00.000Z,13.7
2018-04-10T02:04:00.000Z,13.6
2018-04-10T02:09:00.000Z,13.6
2018-04-10T02:14:00.000Z,13.5
2018-04-10T02:19:00.000Z,13.4
2018-04-10T02:24:00.000Z,13.4
2018-04-10T02:29:00.000Z,13.4
2018-04-10T02:34:00.000Z,13.3
2018-04-10T02:39:00.000Z,13.3
2018-04-10T02:44:00.000Z,13.2
2018-04-10T02:49:00.000Z,13.1
2018-04-10T02:54:00.000Z,13.0
2018-04-10T02:59:00.000Z,12.9
2018-04-10T03:04:00.000Z,12.9
2018-04-10T03:09:00.000Z,12.9
2018-04-10T03:14:00.000Z,12.9
2018-04-10T03:19:00.000Z,12.8
2018-04-10T03:24:00.000Z,12.7
2018-04-10T03:29:00.000Z,12.6
2018-04-10T03:34:00.000Z,12.6
2018-04-10T03:39:00.000Z,12.5
2018-04-10T03:44:00.000Z,12.4
2018-04-10T03:49:00.000Z,12.4
2018-04-10T03:54:00.000Z,12.4
2018-04-10T03:59:00.000Z,12.3
2018-04-10T04:04:00.000Z,12.3
2018-04-10T04:09:00.000Z,12.3
2018-04-10T04:14:00.000Z,12.2
2018-04-10T04:19:00.000Z,12.1
2018-04-10T04:24:00.000Z,12.1
2018-04-10T04:29:00.000Z,12.0
2018-04-10T04:34:00.000Z,12.1
2018-04-10T04:39:00.000Z,12.1
2018-04-10T04:44:00.000Z,12.1
2018-04-10T04:49:00.000Z,12.1
2018-04-10T04:54:00.000Z,12.1
2018-04-10T04:59:00.000Z,12.0
2018-04-10T05:04:00.000Z,12.0
2018-04-10T05:09:00.000Z,12.1
2018-04-10T05:14:00.000Z,12.1
2018-04-10T05:19:00.000Z,12.1
2018-04-10T05:24:00.000Z,12.1
2018-04-10T05:29:00.000Z,12.2
2018-04-10T05:34:00.000Z,12.3
2018-04-10T05:39:00.000Z,12.4
2018-04-10T05:44:00.000Z,12.5
2018-04-10T05:49:00.000Z,12.7
2018-04-10T05:54:00.000Z,12.8
2018-04-10T05:59:00.000Z,12.8
2018-04-10T06:04:00.000Z,13.0
2018-04-10T06:09:00.000Z,13.1
2018-04-10T06:14:00.000Z,13.2
2018-04-10T06:19:00.000Z,13.4
2018-04-10T06:24:00.000Z,13.6
2018-04-10T06:29:00.000Z,13.8
2018-04-10T06:34:00.000Z,14.0
2018-04-10T06:39:00.000Z,14.2
2018-04-10T06:44:00.000Z,14.5
2018-04-10T06:49:00.000Z,14.8
2018-04-10T06:54:00.000Z,15.0
2018-04-10T06:59:00.000Z,15.2
2018-04-10T07:04:00.000Z,15.4
2018-04-10T07:09:00.000Z,15.5
2018-04-10T07:14:00.000Z,15.7
2018-04-10T07:19:00.000Z,15.8
2018-04-10T07:24:00.000Z,16.0
2018-04-10T07:29:00.000Z,16.1
2018-04-10T07:34:00.000Z,16.3
2018-04-10T07:39:00.000Z,16.5
2018-04-10T07:44:00.000Z,16.6
2018-04-10T07:49:00.000Z,16.8
2018-04-10T07:55:00.000Z,17.0
2018-04-10T08:00:00.000Z,17.2
2018-04-10T08:05:00.000Z,17.4
2018-04-10T08:10:00.000Z,17.6
2018-04-10T08:15:00.000Z,18.2
2018-04-10T08:20:00.000Z,19.0
2018-04-10T08:25:00.000Z,19.7
2018-04-10T08:30:00.000Z,20.1
2018-04-10T08:35:00.000Z,20.2
2018-04-10T08:40:00.000Z,20.5
2018-04-10T08:45:00.000Z,21.1
2018-04-10T08:50:00.000Z,21.6
2018-04-10T08:55:00.000Z,21.2
2018-04-10T09:00:00.000Z,20.6
2018-04-10T09:05:00.000Z,19.9
2018-04-10T09:10:00.000Z,19.6
2018-04-10T09:15:00.000Z,19.5
2018-04-10T09:20:00.000Z,19.2
2018-04-10T09:25:00.000Z,19.0
2018-04-10T09:30:00.000Z,18.8
2018-04-10T09:35:00.000Z,18.8
2018-04-10T09:40:00.000Z,18.9
2018-04-10T09:45:00.000Z,18.8
2018-04-10T09:50:00.000Z,19.0
2018-04-10T09:55:00.000Z,19.2
2018-04-10T10:00:00.000Z,19.7
2018-04-10T10:05:00.000Z,19.9
2018-04-10T10:10:00.000Z,19.7
2018-04-10T10:15:00.000Z,19.7
2018-04-10T10:20:00.000Z,19.7
2018-04-10T10:25:00.000Z,19.8
2018-04-10T10:30:00.000Z,20.0
2018-04-10T10:35:00.000Z,20.3
2018-04-10T10:40:00.000Z,20.5
2018-04-10T10:45:00.000Z,20.7
2018-04-10T10:50:00.000Z,20.7
2018-04-10T10:55:00.000Z,20.6
2018-04-10T11:00:00.000Z,20.6
2018-04-10T11:05:00.000Z,20.3
2018-04-10T11:10:00.000Z,20.1
2018-04-10T11:15:00.000Z,20.4
2018-04-10T11:20:00.000Z,20.4
2018-04-10T11:25:00.000Z,20.1
2018-04-10T11:30:00.000Z,19.7
2018-04-10T11:35:00.000Z,19.9
2018-04-10T11:40:00.000Z,19.4
2018-04-10T11:45:00.000Z,19.0
2018-04-10T11:50:00.000Z,19.0
2018-04-10T11:55:00.000Z,18.8
2018-04-10T12:00:00.000Z,18.7
2018-04-10T12:05:00.000Z,18.6
2018-04-10T12:10:00.000Z,18.3
2018-04-10T12:15:00.000Z,18.3
2018-04-10T12:20:00.000Z,18.8
2018-04-10T12:25:00.000Z,19.4
2018-04-10T12:30:00.000Z,19.5
2018-04-10T12:35:00.000Z,19.0
2018-04-10T12:40:00.000Z,18.7
2018-04-10T12:45:00.000Z,18.6
2018-04-10T12:50:00.000Z,18.5
2018-04-10T12:55:00.000Z,18.6
2018-04-10T13:00:00.000Z,18.6
2018-04-10T13:05:00.000Z,19.7
2018-04-10T13:10:00.000Z,20.5
2018-04-10T13:15:00.000Z,20.8
2018-04-10T13:20:00.000Z,21.0
2018-04-10T13:25:00.000Z,21.3
2018-04-10T13:31:00.000Z,21.6
2018-04-10T13:36:00.000Z,21.4
2018-04-10T13:41:00.000Z,20.5
2018-04-10T13:46:00.000Z,19.7
2018-04-10T13:51:00.000Z,19.3
2018-04-10T13:56:00.000Z,19.2
2018-04-10T14:01:00.000Z,19.1
2018-04-10T14:06:00.000Z,19.2
2018-04-10T14:11:00.000Z,19.1
2018-04-10T14:16:00.000Z,19.5
2018-04-10T14:21:00.000Z,19.1
2018-04-10T14:26:00.000Z,18.7
2018-04-10T14:31:00.000Z,18.5
2018-04-10T14:36:00.000Z,18.3
2018-04-10T14:41:00.000Z,18.1
2018-04-10T14:46:00.000Z,18.1
2018-04-10T14:51:00.000Z,18.2
2018-04-10T14:56:00.000Z,18.3
2018-04-10T15:01:00.000Z,18.3
2018-04-10T15:06:00.000Z,18.3
2018-04-10T15:11:00.000Z,18.1
2018-04-10T15:16:00.000Z,18.2
2018-04-10T15:21:00.000Z,18.3
2018-04-10T15:26:00.000Z,18.2
2018-04-10T15:31:00.000Z,18.2
2018-04-10T15:36:00.000Z,18.0
2018-04-10T15:41:00.000Z,17.8
2018-04-10T15:46:00.000Z,17.7
2018-04-10T15:51:00.000Z,17.6
2018-04-10T15:56:00.000Z,17.6
2018-04-10T16:01:00.000Z,17.5
2018-04-10T16:06:00.000Z,17.5
2018-04-10T16:11:00.000Z,17.4
2018-04-10T16:16:00.000Z,17.3
2018-04-10T16:21:00.000Z,17.2
2018-04-10T16:26:00.000Z,17.1
2018-04-10T16:31:00.000Z,17.1
2018-04-10T16:36:00.000Z,17.0
2018-04-10T16:41:00.000Z,17.1
2018-04-10T16:46:00.000Z,17.0
2018-04-10T16:51:00.000Z,16.9
2018-04-10T16:56:00.000Z,17.0
2018-04-10T17:01:00.000Z,17.0
2018-04-10T17:06:00.000Z,16.9
2018-04-10T17:11:00.000Z,16.9
2018-04-10T17:16:00.000Z,16.9
2018-04-10T17:21:00.000Z,16.9
2018-04-10T17:26:00.000Z,16.9
2018-04-10T17:31:00.000Z,16.8
2018-04-10T17:36:00.000Z,16.8
2018-04-10T17:41:00.000Z,16.8
2018-04-10T17:46:00.000Z,16.8
2018-04-10T17:51:00.000Z,16.7
2018-04-10T17:56:00.000Z,16.7
2018-04-10T18:01:00.000Z,16.6
2018-04-10T18:06:00.000Z,16.6
2018-04-10T18:11:00.000Z,16.5
2018-04-10T18:16:00.000Z,16.5
2018-04-10T18:21:00.000Z,16.5
2018-04-10T18:26:00.000Z,16.4
2018-04-10T18:31:00.000Z,16.4
2018-04-10T18:36:00.000Z,16.3
2018-04-10T18:41:00.000Z,16.3
2018-04-10T18:46:00.000Z,16.3
2018-04-10T18:51:00.000Z,16.2
2018-04-10T18:56:00.000Z,16.1
2018-04-10T19:01:00.000Z,16.1
2018-04-10T19:06:00.000Z,16.0
2018-04-10T19:12:00.000Z,15.9
2018-04-10T19:17:00.000Z,15.9
2018-04-10T19:22:00.000Z,15.8
2018-04-10T19:27:00.000Z,15.7
2018-04-10T19:32:00.000Z,15.6
2018-04-10T19:37:00.000Z,15.5
2018-04-10T19:42:00.000Z,15.4
2018-04-10T19:47:00.000Z,15.4
2018-04-10T19:52:00.000Z,15.3
2018-04-10T19:57:00.000Z,15.3
2018-04-10T20:02:00.000Z,15.2
2018-04-10T20:07:00.000Z,15.2
2018-04-10T20:12:00.000Z,15.1
2018-04-10T20:17:00.000Z,15.0
2018-04-10T20:22:00.000Z,15.0
2018-04-10T20:27:00.000Z,14.9
2018-04-10T20:32:00.000Z,14.8
2018-04-10T20:37:00.000Z,14.7
2018-04-10T20:42:00.000Z,14.6
2018-04-10T20:47:00.000Z,14.6
2018-04-10T20:52:00.000Z,14.6
2018-04-10T20:57:00.000Z,14.6
2018-04-10T21:02:00.000Z,14.5
2018-04-10T21:07:00.000Z,14.4
2018-04-10T21:12:00.000Z,14.3
2018-04-10T21:17:00.000Z,14.2
2018-04-10T21:22:00.000Z,14.1
2018-04-10T21:27:00.000Z,14.1
2018-04-10T21:32:00.000Z,14.0
2018-04-10T21:37:00.000Z,13.9
2018-04-10T21:42:00.000Z,13.9
2018-04-10T21:47:00.000Z,13.8
2018-04-10T21:52:00.000Z,13.8
2018-04-10T21:57:00.000Z,13.9
2018-04-10T22:02:00.000Z,13.8
2018-04-10T22:07:00.000Z,13.8
2018-04-10T22:12:00.000Z,13.8
2018-04-10T22:17:00.000Z,13.7
2018-04-10T22:22:00.000Z,13.7
2018-04-10T22:27:00.000Z,13.7
2018-04-10T22:32:00.000Z,13.7
2018-04-10T22:37:00.000Z,13.7
2018-04-10T22:42:00.000Z,13.8
2018-04-10T22:47:00.000Z,13.7
2018-04-10T22:52:00.000Z,13.7
2018-04-10T22:57:00.000Z,13.7
2018-04-10T23:02:00.000Z,13.7
2018-04-10T23:07:00.000Z,13.7
2018-04-10T23:12:00.000Z,13.6
2018-04-10T23:17:00.000Z,13.6
2018-04-10T23:22:00.000Z,13.6
2018-04-10T23:27:00.000Z,13.6
2018-04-10T23:32:00.000Z,13.6
2018-04-10T23:37:00.000Z,13.6
2018-04-10T23:42:00.000Z,13.6
2018-04-10T23:47:00.000Z,13.6
2018-04-10T23:52:00.000Z,13.6
2018-04-10T23:57:00.000Z,13.6
